sensor_id;sensor_type;location;lat;lon;timestamp;P1;durP1;ratioP1;P2;durP2;ratioP2
84668;SDS011;74897;42.704;23.318;2024-01-11T00:00:26;32.90;;;15.13;;
84668;SDS011;74897;42.704;23.318;2024-01-11T00:02:51;33.83;;;15.85;;
84668;SDS011;74897;42.704;23.318;2024-01-11T00:05:17;32.63;;;15.45;;
84668;SDS011;74897;42.704;23.318;2024-01-11T00:07:42;36.73;;;16.47;;
84668;SDS011;74897;42.704;23.318;2024-01-11T00:10:07;31.13;;;15.85;;
84668;SDS011;74897;42.704;23.318;2024-01-11T00:12:33;36.45;;;17.98;;
84668;SDS011;74897;42.704;23.318;2024-01-11T00:14:59;41.53;;;18.20;;
84668;SDS011;74897;42.704;23.318;2024-01-11T00:17:24;42.70;;;19.38;;
84668;SDS011;74897;42.704;23.318;2024-01-11T00:19:50;35.80;;;17.33;;
84668;SDS011;74897;42.704;23.318;2024-01-11T00:22:16;37.05;;;16.10;;
84668;SDS011;74897;42.704;23.318;2024-01-11T00:24:41;38.03;;;20.15;;
84668;SDS011;74897;42.704;23.318;2024-01-11T00:27:06;38.88;;;18.50;;
84668;SDS011;74897;42.704;23.318;2024-01-11T00:29:32;43.85;;;18.17;;
84668;SDS011;74897;42.704;23.318;2024-01-11T00:31:58;45.72;;;19.35;;
84668;SDS011;74897;42.704;23.318;2024-01-11T00:34:23;40.30;;;19.00;;
84668;SDS011;74897;42.704;23.318;2024-01-11T00:36:48;44.90;;;19.70;;
84668;SDS011;74897;42.704;23.318;2024-01-11T00:39:14;45.72;;;19.25;;
84668;SDS011;74897;42.704;23.318;2024-01-11T00:41:39;38.03;;;19.08;;
84668;SDS011;74897;42.704;23.318;2024-01-11T00:44:05;37.55;;;18.83;;
84668;SDS011;74897;42.704;23.318;2024-01-11T00:46:32;34.67;;;17.17;;
84668;SDS011;74897;42.704;23.318;2024-01-11T00:48:57;46.45;;;18.52;;
84668;SDS011;74897;42.704;23.318;2024-01-11T00:51:23;33.38;;;17.05;;
84668;SDS011;74897;42.704;23.318;2024-01-11T00:53:48;36.53;;;16.25;;
84668;SDS011;74897;42.704;23.318;2024-01-11T00:56:17;34.97;;;16.40;;
84668;SDS011;74897;42.704;23.318;2024-01-11T00:58:42;27.77;;;13.25;;
84668;SDS011;74897;42.704;23.318;2024-01-11T01:01:11;29.63;;;13.73;;
84668;SDS011;74897;42.704;23.318;2024-01-11T01:03:36;34.83;;;15.02;;
84668;SDS011;74897;42.704;23.318;2024-01-11T01:06:02;32.10;;;14.10;;
84668;SDS011;74897;42.704;23.318;2024-01-11T01:08:27;31.45;;;13.73;;
84668;SDS011;74897;42.704;23.318;2024-01-11T01:10:53;25.70;;;14.40;;
84668;SDS011;74897;42.704;23.318;2024-01-11T01:13:18;27.35;;;13.85;;
84668;SDS011;74897;42.704;23.318;2024-01-11T01:15:43;24.95;;;13.45;;
84668;SDS011;74897;42.704;23.318;2024-01-11T01:18:09;27.13;;;12.68;;
84668;SDS011;74897;42.704;23.318;2024-01-11T01:20:34;30.20;;;12.60;;
84668;SDS011;74897;42.704;23.318;2024-01-11T01:22:59;18.80;;;11.15;;
84668;SDS011;74897;42.704;23.318;2024-01-11T01:25:25;19.20;;;10.23;;
84668;SDS011;74897;42.704;23.318;2024-01-11T01:27:50;18.48;;;10.43;;
84668;SDS011;74897;42.704;23.318;2024-01-11T01:30:16;23.00;;;11.40;;
84668;SDS011;74897;42.704;23.318;2024-01-11T01:32:41;19.90;;;9.90;;
84668;SDS011;74897;42.704;23.318;2024-01-11T01:35:06;23.02;;;12.10;;
84668;SDS011;74897;42.704;23.318;2024-01-11T01:37:32;30.67;;;13.30;;
84668;SDS011;74897;42.704;23.318;2024-01-11T01:39:58;26.20;;;13.57;;
84668;SDS011;74897;42.704;23.318;2024-01-11T01:42:23;23.80;;;12.23;;
84668;SDS011;74897;42.704;23.318;2024-01-11T01:44:48;26.40;;;13.27;;
84668;SDS011;74897;42.704;23.318;2024-01-11T01:47:13;29.20;;;13.30;;
84668;SDS011;74897;42.704;23.318;2024-01-11T01:49:39;24.58;;;12.38;;
84668;SDS011;74897;42.704;23.318;2024-01-11T01:52:05;23.85;;;11.43;;
84668;SDS011;74897;42.704;23.318;2024-01-11T01:54:31;24.52;;;11.70;;
84668;SDS011;74897;42.704;23.318;2024-01-11T01:56:57;21.33;;;10.35;;
84668;SDS011;74897;42.704;23.318;2024-01-11T01:59:22;17.77;;;9.75;;
84668;SDS011;74897;42.704;23.318;2024-01-11T02:01:49;19.98;;;10.10;;
84668;SDS011;74897;42.704;23.318;2024-01-11T02:04:14;17.33;;;8.75;;
84668;SDS011;74897;42.704;23.318;2024-01-11T02:06:40;15.93;;;9.23;;
84668;SDS011;74897;42.704;23.318;2024-01-11T02:09:06;23.80;;;11.07;;
84668;SDS011;74897;42.704;23.318;2024-01-11T02:11:33;20.58;;;10.20;;
84668;SDS011;74897;42.704;23.318;2024-01-11T02:13:59;18.33;;;10.05;;
84668;SDS011;74897;42.704;23.318;2024-01-11T02:16:25;20.60;;;10.20;;
84668;SDS011;74897;42.704;23.318;2024-01-11T02:18:50;21.05;;;11.82;;
84668;SDS011;74897;42.704;23.318;2024-01-11T02:21:15;22.27;;;10.50;;
84668;SDS011;74897;42.704;23.318;2024-01-11T02:23:54;27.35;;;12.80;;
84668;SDS011;74897;42.704;23.318;2024-01-11T02:26:19;25.15;;;12.73;;
84668;SDS011;74897;42.704;23.318;2024-01-11T02:28:47;28.58;;;13.60;;
84668;SDS011;74897;42.704;23.318;2024-01-11T02:31:12;23.53;;;13.13;;
84668;SDS011;74897;42.704;23.318;2024-01-11T02:33:39;22.85;;;12.82;;
84668;SDS011;74897;42.704;23.318;2024-01-11T02:36:04;21.25;;;11.90;;
84668;SDS011;74897;42.704;23.318;2024-01-11T02:38:30;26.33;;;12.70;;
84668;SDS011;74897;42.704;23.318;2024-01-11T02:40:56;25.17;;;13.60;;
84668;SDS011;74897;42.704;23.318;2024-01-11T02:43:23;24.05;;;13.05;;
84668;SDS011;74897;42.704;23.318;2024-01-11T02:45:49;21.00;;;11.60;;
84668;SDS011;74897;42.704;23.318;2024-01-11T02:48:14;25.13;;;12.30;;
84668;SDS011;74897;42.704;23.318;2024-01-11T02:50:39;21.85;;;10.57;;
84668;SDS011;74897;42.704;23.318;2024-01-11T02:53:04;28.35;;;13.15;;
84668;SDS011;74897;42.704;23.318;2024-01-11T02:55:30;23.50;;;11.07;;
84668;SDS011;74897;42.704;23.318;2024-01-11T02:57:55;26.20;;;11.87;;
84668;SDS011;74897;42.704;23.318;2024-01-11T03:00:20;29.08;;;11.30;;
84668;SDS011;74897;42.704;23.318;2024-01-11T03:02:46;24.50;;;11.10;;
84668;SDS011;74897;42.704;23.318;2024-01-11T03:05:11;24.83;;;12.18;;
84668;SDS011;74897;42.704;23.318;2024-01-11T03:07:36;24.40;;;12.38;;
84668;SDS011;74897;42.704;23.318;2024-01-11T03:10:02;21.47;;;11.53;;
84668;SDS011;74897;42.704;23.318;2024-01-11T03:12:27;25.05;;;10.85;;
84668;SDS011;74897;42.704;23.318;2024-01-11T03:14:53;22.25;;;11.63;;
84668;SDS011;74897;42.704;23.318;2024-01-11T03:17:19;25.95;;;14.10;;
84668;SDS011;74897;42.704;23.318;2024-01-11T03:19:44;30.70;;;11.95;;
84668;SDS011;74897;42.704;23.318;2024-01-11T03:22:11;36.25;;;15.00;;
84668;SDS011;74897;42.704;23.318;2024-01-11T03:24:39;41.17;;;15.73;;
84668;SDS011;74897;42.704;23.318;2024-01-11T03:27:05;33.22;;;14.25;;
84668;SDS011;74897;42.704;23.318;2024-01-11T03:29:31;37.83;;;14.77;;
84668;SDS011;74897;42.704;23.318;2024-01-11T03:31:56;34.95;;;14.35;;
84668;SDS011;74897;42.704;23.318;2024-01-11T03:34:21;31.27;;;14.80;;
84668;SDS011;74897;42.704;23.318;2024-01-11T03:36:47;31.25;;;14.75;;
84668;SDS011;74897;42.704;23.318;2024-01-11T03:39:12;24.73;;;13.43;;
84668;SDS011;74897;42.704;23.318;2024-01-11T03:41:42;24.65;;;12.02;;
84668;SDS011;74897;42.704;23.318;2024-01-11T03:44:08;28.92;;;12.50;;
84668;SDS011;74897;42.704;23.318;2024-01-11T03:46:33;25.83;;;12.30;;
84668;SDS011;74897;42.704;23.318;2024-01-11T03:48:59;23.08;;;11.82;;
84668;SDS011;74897;42.704;23.318;2024-01-11T03:51:25;20.77;;;12.60;;
84668;SDS011;74897;42.704;23.318;2024-01-11T03:53:50;19.80;;;9.43;;
84668;SDS011;74897;42.704;23.318;2024-01-11T03:56:15;23.05;;;11.95;;
84668;SDS011;74897;42.704;23.318;2024-01-11T03:58:41;21.35;;;10.43;;
84668;SDS011;74897;42.704;23.318;2024-01-11T04:01:09;23.73;;;10.20;;
84668;SDS011;74897;42.704;23.318;2024-01-11T04:03:35;16.60;;;9.65;;
84668;SDS011;74897;42.704;23.318;2024-01-11T04:06:00;22.85;;;10.32;;
84668;SDS011;74897;42.704;23.318;2024-01-11T04:08:26;17.15;;;11.10;;
84668;SDS011;74897;42.704;23.318;2024-01-11T04:10:51;18.05;;;9.30;;
84668;SDS011;74897;42.704;23.318;2024-01-11T04:13:16;16.13;;;8.80;;
84668;SDS011;74897;42.704;23.318;2024-01-11T04:15:42;17.80;;;9.35;;
84668;SDS011;74897;42.704;23.318;2024-01-11T04:18:07;19.30;;;9.05;;
84668;SDS011;74897;42.704;23.318;2024-01-11T04:20:32;18.17;;;9.23;;
84668;SDS011;74897;42.704;23.318;2024-01-11T04:22:58;18.03;;;8.20;;
84668;SDS011;74897;42.704;23.318;2024-01-11T04:25:23;18.73;;;9.07;;
84668;SDS011;74897;42.704;23.318;2024-01-11T04:27:48;14.95;;;8.00;;
84668;SDS011;74897;42.704;23.318;2024-01-11T04:30:14;12.98;;;7.45;;
84668;SDS011;74897;42.704;23.318;2024-01-11T04:32:39;20.90;;;10.30;;
84668;SDS011;74897;42.704;23.318;2024-01-11T04:35:05;16.90;;;9.80;;
84668;SDS011;74897;42.704;23.318;2024-01-11T04:37:30;19.30;;;10.02;;
84668;SDS011;74897;42.704;23.318;2024-01-11T04:39:55;28.80;;;12.23;;
84668;SDS011;74897;42.704;23.318;2024-01-11T04:42:24;25.80;;;11.75;;
84668;SDS011;74897;42.704;23.318;2024-01-11T04:44:50;23.20;;;11.45;;
84668;SDS011;74897;42.704;23.318;2024-01-11T04:47:15;24.95;;;10.73;;
84668;SDS011;74897;42.704;23.318;2024-01-11T04:49:40;15.57;;;9.35;;
84668;SDS011;74897;42.704;23.318;2024-01-11T04:52:06;20.42;;;10.88;;
84668;SDS011;74897;42.704;23.318;2024-01-11T04:54:31;16.73;;;8.03;;
84668;SDS011;74897;42.704;23.318;2024-01-11T04:56:56;19.65;;;10.10;;
84668;SDS011;74897;42.704;23.318;2024-01-11T04:59:22;19.02;;;9.25;;
84668;SDS011;74897;42.704;23.318;2024-01-11T05:01:48;20.38;;;9.95;;
84668;SDS011;74897;42.704;23.318;2024-01-11T05:04:13;16.57;;;9.03;;
84668;SDS011;74897;42.704;23.318;2024-01-11T05:06:38;25.00;;;12.43;;
84668;SDS011;74897;42.704;23.318;2024-01-11T05:09:04;31.85;;;12.85;;
84668;SDS011;74897;42.704;23.318;2024-01-11T05:13:56;20.08;;;11.13;;
84668;SDS011;74897;42.704;23.318;2024-01-11T05:16:22;27.48;;;11.93;;
84668;SDS011;74897;42.704;23.318;2024-01-11T05:21:13;31.63;;;13.73;;
84668;SDS011;74897;42.704;23.318;2024-01-11T05:23:40;32.20;;;17.48;;
84668;SDS011;74897;42.704;23.318;2024-01-11T05:26:05;36.33;;;15.90;;
84668;SDS011;74897;42.704;23.318;2024-01-11T05:28:30;34.20;;;15.85;;
84668;SDS011;74897;42.704;23.318;2024-01-11T05:30:56;46.03;;;18.35;;
84668;SDS011;74897;42.704;23.318;2024-01-11T05:33:21;29.33;;;16.15;;
84668;SDS011;74897;42.704;23.318;2024-01-11T05:35:46;31.30;;;15.95;;
84668;SDS011;74897;42.704;23.318;2024-01-11T05:38:12;28.53;;;15.07;;
84668;SDS011;74897;42.704;23.318;2024-01-11T05:40:37;38.70;;;16.10;;
84668;SDS011;74897;42.704;23.318;2024-01-11T05:43:02;30.55;;;15.50;;
84668;SDS011;74897;42.704;23.318;2024-01-11T05:45:28;37.38;;;16.77;;
84668;SDS011;74897;42.704;23.318;2024-01-11T05:47:53;40.00;;;17.55;;
84668;SDS011;74897;42.704;23.318;2024-01-11T05:50:18;44.90;;;17.40;;
84668;SDS011;74897;42.704;23.318;2024-01-11T05:52:44;42.87;;;19.07;;
84668;SDS011;74897;42.704;23.318;2024-01-11T05:55:09;39.83;;;16.47;;
84668;SDS011;74897;42.704;23.318;2024-01-11T05:57:34;35.38;;;16.27;;
84668;SDS011;74897;42.704;23.318;2024-01-11T06:00:00;32.60;;;16.52;;
84668;SDS011;74897;42.704;23.318;2024-01-11T06:02:25;43.92;;;16.98;;
84668;SDS011;74897;42.704;23.318;2024-01-11T06:04:51;39.97;;;16.15;;
84668;SDS011;74897;42.704;23.318;2024-01-11T06:07:16;35.15;;;16.38;;
84668;SDS011;74897;42.704;23.318;2024-01-11T06:09:43;32.45;;;16.02;;
84668;SDS011;74897;42.704;23.318;2024-01-11T06:12:08;31.45;;;15.52;;
84668;SDS011;74897;42.704;23.318;2024-01-11T06:14:34;30.27;;;15.27;;
84668;SDS011;74897;42.704;23.318;2024-01-11T06:16:59;40.72;;;17.15;;
84668;SDS011;74897;42.704;23.318;2024-01-11T06:19:24;39.17;;;17.27;;
84668;SDS011;74897;42.704;23.318;2024-01-11T06:21:50;32.17;;;16.65;;
84668;SDS011;74897;42.704;23.318;2024-01-11T06:24:15;35.13;;;15.93;;
84668;SDS011;74897;42.704;23.318;2024-01-11T06:26:40;33.65;;;15.27;;
84668;SDS011;74897;42.704;23.318;2024-01-11T06:29:05;37.00;;;17.63;;
84668;SDS011;74897;42.704;23.318;2024-01-11T06:31:31;41.90;;;18.85;;
84668;SDS011;74897;42.704;23.318;2024-01-11T06:33:56;37.78;;;18.27;;
84668;SDS011;74897;42.704;23.318;2024-01-11T06:36:22;38.40;;;16.93;;
84668;SDS011;74897;42.704;23.318;2024-01-11T06:38:47;40.42;;;18.40;;
84668;SDS011;74897;42.704;23.318;2024-01-11T06:41:13;39.50;;;19.02;;
84668;SDS011;74897;42.704;23.318;2024-01-11T06:43:39;38.75;;;18.27;;
84668;SDS011;74897;42.704;23.318;2024-01-11T06:46:04;39.92;;;20.35;;
84668;SDS011;74897;42.704;23.318;2024-01-11T06:48:30;43.58;;;20.92;;
84668;SDS011;74897;42.704;23.318;2024-01-11T06:50:55;40.05;;;19.70;;
84668;SDS011;74897;42.704;23.318;2024-01-11T06:53:21;38.23;;;19.10;;
84668;SDS011;74897;42.704;23.318;2024-01-11T06:55:46;36.80;;;19.95;;
84668;SDS011;74897;42.704;23.318;2024-01-11T07:00:37;34.33;;;18.27;;
84668;SDS011;74897;42.704;23.318;2024-01-11T07:03:08;35.08;;;19.23;;
84668;SDS011;74897;42.704;23.318;2024-01-11T07:05:33;41.10;;;17.60;;
84668;SDS011;74897;42.704;23.318;2024-01-11T07:07:58;38.57;;;19.63;;
84668;SDS011;74897;42.704;23.318;2024-01-11T07:10:24;39.78;;;19.63;;
84668;SDS011;74897;42.704;23.318;2024-01-11T07:12:49;41.90;;;16.67;;
84668;SDS011;74897;42.704;23.318;2024-01-11T07:15:14;39.33;;;19.92;;
84668;SDS011;74897;42.704;23.318;2024-01-11T07:17:40;37.15;;;18.83;;
84668;SDS011;74897;42.704;23.318;2024-01-11T07:20:05;38.47;;;16.50;;
84668;SDS011;74897;42.704;23.318;2024-01-11T07:22:32;34.53;;;16.65;;
84668;SDS011;74897;42.704;23.318;2024-01-11T07:24:58;38.93;;;16.87;;
84668;SDS011;74897;42.704;23.318;2024-01-11T07:27:23;40.53;;;18.23;;
84668;SDS011;74897;42.704;23.318;2024-01-11T07:29:48;51.88;;;20.77;;
84668;SDS011;74897;42.704;23.318;2024-01-11T07:32:15;40.13;;;19.38;;
84668;SDS011;74897;42.704;23.318;2024-01-11T07:34:40;33.10;;;16.63;;
84668;SDS011;74897;42.704;23.318;2024-01-11T07:37:05;26.17;;;14.57;;
84668;SDS011;74897;42.704;23.318;2024-01-11T07:39:30;25.98;;;14.05;;
84668;SDS011;74897;42.704;23.318;2024-01-11T07:41:56;32.88;;;16.20;;
84668;SDS011;74897;42.704;23.318;2024-01-11T07:44:21;33.85;;;16.60;;
84668;SDS011;74897;42.704;23.318;2024-01-11T07:46:47;44.85;;;18.75;;
84668;SDS011;74897;42.704;23.318;2024-01-11T07:49:13;34.22;;;16.90;;
84668;SDS011;74897;42.704;23.318;2024-01-11T07:51:39;36.33;;;17.48;;
84668;SDS011;74897;42.704;23.318;2024-01-11T07:54:05;22.73;;;12.95;;
84668;SDS011;74897;42.704;23.318;2024-01-11T07:56:30;36.40;;;15.30;;
84668;SDS011;74897;42.704;23.318;2024-01-11T07:58:55;32.70;;;14.77;;
84668;SDS011;74897;42.704;23.318;2024-01-11T08:01:21;35.80;;;15.23;;
84668;SDS011;74897;42.704;23.318;2024-01-11T08:03:46;32.70;;;16.75;;
84668;SDS011;74897;42.704;23.318;2024-01-11T08:06:12;38.80;;;17.35;;
84668;SDS011;74897;42.704;23.318;2024-01-11T08:08:38;33.38;;;17.45;;
84668;SDS011;74897;42.704;23.318;2024-01-11T08:11:09;34.72;;;18.38;;
84668;SDS011;74897;42.704;23.318;2024-01-11T08:13:35;41.47;;;19.38;;
84668;SDS011;74897;42.704;23.318;2024-01-11T08:16:02;40.60;;;18.58;;
84668;SDS011;74897;42.704;23.318;2024-01-11T08:18:30;39.55;;;18.80;;
84668;SDS011;74897;42.704;23.318;2024-01-11T08:20:58;41.17;;;20.17;;
84668;SDS011;74897;42.704;23.318;2024-01-11T08:23:24;46.17;;;23.25;;
84668;SDS011;74897;42.704;23.318;2024-01-11T08:25:49;37.33;;;20.40;;
84668;SDS011;74897;42.704;23.318;2024-01-11T08:28:14;50.60;;;24.38;;
84668;SDS011;74897;42.704;23.318;2024-01-11T08:30:40;54.45;;;25.33;;
84668;SDS011;74897;42.704;23.318;2024-01-11T08:33:07;46.25;;;24.38;;
84668;SDS011;74897;42.704;23.318;2024-01-11T08:35:32;43.60;;;22.83;;
84668;SDS011;74897;42.704;23.318;2024-01-11T08:37:58;51.30;;;23.67;;
84668;SDS011;74897;42.704;23.318;2024-01-11T08:40:24;48.28;;;23.50;;
84668;SDS011;74897;42.704;23.318;2024-01-11T08:42:50;43.55;;;24.55;;
84668;SDS011;74897;42.704;23.318;2024-01-11T08:45:15;43.88;;;23.42;;
84668;SDS011;74897;42.704;23.318;2024-01-11T08:47:45;49.42;;;22.75;;
84668;SDS011;74897;42.704;23.318;2024-01-11T08:50:15;58.85;;;26.23;;
84668;SDS011;74897;42.704;23.318;2024-01-11T08:52:40;57.15;;;26.33;;
84668;SDS011;74897;42.704;23.318;2024-01-11T08:55:06;50.67;;;24.13;;
84668;SDS011;74897;42.704;23.318;2024-01-11T08:57:33;51.33;;;23.40;;
84668;SDS011;74897;42.704;23.318;2024-01-11T09:00:01;48.90;;;21.40;;
84668;SDS011;74897;42.704;23.318;2024-01-11T09:04:53;41.27;;;20.90;;
84668;SDS011;74897;42.704;23.318;2024-01-11T09:07:20;47.03;;;23.85;;
84668;SDS011;74897;42.704;23.318;2024-01-11T09:09:45;48.80;;;23.73;;
84668;SDS011;74897;42.704;23.318;2024-01-11T09:12:11;42.17;;;23.27;;
84668;SDS011;74897;42.704;23.318;2024-01-11T09:14:36;45.83;;;25.13;;
84668;SDS011;74897;42.704;23.318;2024-01-11T09:17:02;56.08;;;24.58;;
84668;SDS011;74897;42.704;23.318;2024-01-11T09:19:27;38.70;;;22.42;;
84668;SDS011;74897;42.704;23.318;2024-01-11T09:21:53;45.55;;;22.85;;
84668;SDS011;74897;42.704;23.318;2024-01-11T09:24:18;42.30;;;22.75;;
84668;SDS011;74897;42.704;23.318;2024-01-11T09:26:44;37.33;;;21.70;;
84668;SDS011;74897;42.704;23.318;2024-01-11T09:29:11;42.50;;;21.60;;
84668;SDS011;74897;42.704;23.318;2024-01-11T09:31:36;41.90;;;22.40;;
84668;SDS011;74897;42.704;23.318;2024-01-11T09:34:01;43.47;;;23.05;;
84668;SDS011;74897;42.704;23.318;2024-01-11T09:36:27;47.63;;;22.33;;
84668;SDS011;74897;42.704;23.318;2024-01-11T09:38:52;43.65;;;22.60;;
84668;SDS011;74897;42.704;23.318;2024-01-11T09:41:17;43.63;;;22.75;;
84668;SDS011;74897;42.704;23.318;2024-01-11T09:43:44;44.15;;;21.60;;
84668;SDS011;74897;42.704;23.318;2024-01-11T09:46:10;45.55;;;23.63;;
84668;SDS011;74897;42.704;23.318;2024-01-11T09:48:37;44.95;;;23.25;;
84668;SDS011;74897;42.704;23.318;2024-01-11T09:51:03;45.90;;;23.42;;
84668;SDS011;74897;42.704;23.318;2024-01-11T09:55:54;35.07;;;18.37;;
84668;SDS011;74897;42.704;23.318;2024-01-11T10:00:45;35.10;;;18.90;;
84668;SDS011;74897;42.704;23.318;2024-01-11T10:03:11;42.28;;;20.17;;
84668;SDS011;74897;42.704;23.318;2024-01-11T10:05:37;38.45;;;19.60;;
84668;SDS011;74897;42.704;23.318;2024-01-11T10:08:03;36.83;;;19.40;;
84668;SDS011;74897;42.704;23.318;2024-01-11T10:10:28;36.17;;;19.80;;
84668;SDS011;74897;42.704;23.318;2024-01-11T10:12:54;35.00;;;17.58;;
84668;SDS011;74897;42.704;23.318;2024-01-11T10:15:21;39.72;;;19.27;;
84668;SDS011;74897;42.704;23.318;2024-01-11T10:17:52;37.05;;;20.17;;
84668;SDS011;74897;42.704;23.318;2024-01-11T10:20:17;32.92;;;18.13;;
84668;SDS011;74897;42.704;23.318;2024-01-11T10:22:48;38.90;;;19.92;;
84668;SDS011;74897;42.704;23.318;2024-01-11T10:25:14;39.75;;;20.00;;
84668;SDS011;74897;42.704;23.318;2024-01-11T10:27:40;35.47;;;18.75;;
84668;SDS011;74897;42.704;23.318;2024-01-11T10:30:07;35.10;;;18.20;;
84668;SDS011;74897;42.704;23.318;2024-01-11T10:32:33;34.55;;;19.17;;
84668;SDS011;74897;42.704;23.318;2024-01-11T10:35:00;37.92;;;19.70;;
84668;SDS011;74897;42.704;23.318;2024-01-11T10:37:26;36.35;;;19.13;;
84668;SDS011;74897;42.704;23.318;2024-01-11T10:39:52;34.85;;;17.98;;
84668;SDS011;74897;42.704;23.318;2024-01-11T10:42:19;33.78;;;16.23;;
84668;SDS011;74897;42.704;23.318;2024-01-11T10:44:47;33.05;;;16.85;;
84668;SDS011;74897;42.704;23.318;2024-01-11T10:47:13;27.52;;;15.02;;
84668;SDS011;74897;42.704;23.318;2024-01-11T10:49:39;33.72;;;17.23;;
84668;SDS011;74897;42.704;23.318;2024-01-11T10:54:31;28.63;;;15.85;;
84668;SDS011;74897;42.704;23.318;2024-01-11T10:56:59;36.72;;;16.38;;
84668;SDS011;74897;42.704;23.318;2024-01-11T10:59:25;31.33;;;16.38;;
84668;SDS011;74897;42.704;23.318;2024-01-11T11:01:52;33.45;;;16.77;;
84668;SDS011;74897;42.704;23.318;2024-01-11T11:04:20;31.42;;;17.20;;
84668;SDS011;74897;42.704;23.318;2024-01-11T11:06:47;30.67;;;15.70;;
84668;SDS011;74897;42.704;23.318;2024-01-11T11:09:13;28.13;;;15.27;;
84668;SDS011;74897;42.704;23.318;2024-01-11T11:11:40;23.17;;;12.27;;
84668;SDS011;74897;42.704;23.318;2024-01-11T11:16:33;11.48;;;8.48;;
84668;SDS011;74897;42.704;23.318;2024-01-11T11:18:59;18.05;;;10.18;;
84668;SDS011;74897;42.704;23.318;2024-01-11T11:21:25;16.90;;;8.50;;
84668;SDS011;74897;42.704;23.318;2024-01-11T11:23:51;17.67;;;9.30;;
84668;SDS011;74897;42.704;23.318;2024-01-11T11:26:17;16.63;;;10.20;;
84668;SDS011;74897;42.704;23.318;2024-01-11T11:28:42;19.30;;;9.90;;
84668;SDS011;74897;42.704;23.318;2024-01-11T11:31:08;18.23;;;10.88;;
84668;SDS011;74897;42.704;23.318;2024-01-11T11:33:35;21.05;;;10.45;;
84668;SDS011;74897;42.704;23.318;2024-01-11T11:38:29;15.00;;;9.13;;
84668;SDS011;74897;42.704;23.318;2024-01-11T11:40:56;17.10;;;10.45;;
84668;SDS011;74897;42.704;23.318;2024-01-11T11:43:21;20.52;;;11.30;;
84668;SDS011;74897;42.704;23.318;2024-01-11T11:53:42;18.60;;;10.05;;
84668;SDS011;74897;42.704;23.318;2024-01-11T11:58:40;16.85;;;9.50;;
84668;SDS011;74897;42.704;23.318;2024-01-11T12:04:07;21.30;;;11.73;;
84668;SDS011;74897;42.704;23.318;2024-01-11T12:22:48;11.98;;;7.75;;
84668;SDS011;74897;42.704;23.318;2024-01-11T12:25:16;11.85;;;7.32;;
84668;SDS011;74897;42.704;23.318;2024-01-11T12:30:07;10.30;;;5.73;;
84668;SDS011;74897;42.704;23.318;2024-01-11T12:32:35;12.75;;;6.18;;
84668;SDS011;74897;42.704;23.318;2024-01-11T12:37:26;11.17;;;5.83;;
84668;SDS011;74897;42.704;23.318;2024-01-11T12:42:18;8.35;;;5.25;;
84668;SDS011;74897;42.704;23.318;2024-01-11T12:47:14;5.05;;;3.92;;
84668;SDS011;74897;42.704;23.318;2024-01-11T12:49:44;6.07;;;4.32;;
84668;SDS011;74897;42.704;23.318;2024-01-11T12:52:17;9.52;;;4.38;;
84668;SDS011;74897;42.704;23.318;2024-01-11T12:54:43;9.77;;;5.43;;
84668;SDS011;74897;42.704;23.318;2024-01-11T12:57:11;5.72;;;3.67;;
84668;SDS011;74897;42.704;23.318;2024-01-11T12:59:36;9.25;;;4.88;;
84668;SDS011;74897;42.704;23.318;2024-01-11T13:02:02;8.23;;;5.57;;
84668;SDS011;74897;42.704;23.318;2024-01-11T13:04:27;5.38;;;4.38;;
84668;SDS011;74897;42.704;23.318;2024-01-11T13:06:52;9.02;;;5.18;;
84668;SDS011;74897;42.704;23.318;2024-01-11T13:09:18;5.70;;;4.22;;
84668;SDS011;74897;42.704;23.318;2024-01-11T13:11:44;5.95;;;4.00;;
84668;SDS011;74897;42.704;23.318;2024-01-11T13:16:39;6.88;;;4.50;;
84668;SDS011;74897;42.704;23.318;2024-01-11T13:21:30;3.80;;;3.38;;
84668;SDS011;74897;42.704;23.318;2024-01-11T13:26:22;3.58;;;3.28;;
84668;SDS011;74897;42.704;23.318;2024-01-11T13:31:12;5.77;;;3.87;;
84668;SDS011;74897;42.704;23.318;2024-01-11T13:36:03;3.35;;;3.05;;
84668;SDS011;74897;42.704;23.318;2024-01-11T13:40:54;5.63;;;4.85;;
84668;SDS011;74897;42.704;23.318;2024-01-11T13:45:44;3.83;;;3.20;;
84668;SDS011;74897;42.704;23.318;2024-01-11T13:50:35;5.73;;;3.17;;
84668;SDS011;74897;42.704;23.318;2024-01-11T13:55:26;4.10;;;3.35;;
84668;SDS011;74897;42.704;23.318;2024-01-11T14:00:18;5.63;;;3.60;;
84668;SDS011;74897;42.704;23.318;2024-01-11T14:05:10;7.53;;;4.03;;
84668;SDS011;74897;42.704;23.318;2024-01-11T14:07:38;9.45;;;4.45;;
84668;SDS011;74897;42.704;23.318;2024-01-11T14:10:04;8.45;;;5.45;;
84668;SDS011;74897;42.704;23.318;2024-01-11T14:12:33;6.53;;;5.00;;
84668;SDS011;74897;42.704;23.318;2024-01-11T14:14:58;7.97;;;5.18;;
84668;SDS011;74897;42.704;23.318;2024-01-11T14:17:25;9.50;;;5.95;;
84668;SDS011;74897;42.704;23.318;2024-01-11T14:19:52;9.48;;;5.57;;
84668;SDS011;74897;42.704;23.318;2024-01-11T14:24:42;5.03;;;4.57;;
84668;SDS011;74897;42.704;23.318;2024-01-11T14:29:34;6.95;;;4.82;;
84668;SDS011;74897;42.704;23.318;2024-01-11T14:32:00;7.97;;;5.05;;
84668;SDS011;74897;42.704;23.318;2024-01-11T14:36:50;8.63;;;5.60;;
84668;SDS011;74897;42.704;23.318;2024-01-11T14:39:16;6.80;;;5.45;;
84668;SDS011;74897;42.704;23.318;2024-01-11T14:41:41;13.23;;;5.93;;
84668;SDS011;74897;42.704;23.318;2024-01-11T14:44:06;9.23;;;6.40;;
84668;SDS011;74897;42.704;23.318;2024-01-11T14:48:57;9.10;;;6.50;;
84668;SDS011;74897;42.704;23.318;2024-01-11T14:53:47;11.30;;;6.90;;
84668;SDS011;74897;42.704;23.318;2024-01-11T14:58:38;8.98;;;5.72;;
84668;SDS011;74897;42.704;23.318;2024-01-11T15:03:29;8.43;;;4.97;;
84668;SDS011;74897;42.704;23.318;2024-01-11T15:08:19;13.57;;;6.23;;
84668;SDS011;74897;42.704;23.318;2024-01-11T15:10:45;11.05;;;6.55;;
84668;SDS011;74897;42.704;23.318;2024-01-11T15:15:36;13.60;;;6.80;;
84668;SDS011;74897;42.704;23.318;2024-01-11T15:20:26;9.83;;;5.40;;
84668;SDS011;74897;42.704;23.318;2024-01-11T15:25:17;14.17;;;6.00;;
84668;SDS011;74897;42.704;23.318;2024-01-11T15:27:43;11.90;;;6.72;;
84668;SDS011;74897;42.704;23.318;2024-01-11T15:30:09;12.40;;;7.40;;
84668;SDS011;74897;42.704;23.318;2024-01-11T15:32:36;15.50;;;9.18;;
84668;SDS011;74897;42.704;23.318;2024-01-11T15:35:02;12.88;;;7.30;;
84668;SDS011;74897;42.704;23.318;2024-01-11T15:37:28;13.65;;;7.53;;
84668;SDS011;74897;42.704;23.318;2024-01-11T15:39:54;12.55;;;7.82;;
84668;SDS011;74897;42.704;23.318;2024-01-11T15:42:20;14.32;;;8.07;;
84668;SDS011;74897;42.704;23.318;2024-01-11T15:44:45;13.90;;;8.27;;
84668;SDS011;74897;42.704;23.318;2024-01-11T15:47:10;19.92;;;8.52;;
84668;SDS011;74897;42.704;23.318;2024-01-11T15:49:36;13.77;;;7.40;;
84668;SDS011;74897;42.704;23.318;2024-01-11T15:52:02;18.85;;;9.50;;
84668;SDS011;74897;42.704;23.318;2024-01-11T15:54:27;13.13;;;8.85;;
84668;SDS011;74897;42.704;23.318;2024-01-11T15:56:53;12.23;;;8.32;;
84668;SDS011;74897;42.704;23.318;2024-01-11T15:59:18;14.10;;;9.25;;